createdAt,value
2022-12-08T00:04:16.928Z,2.22
2022-12-08T00:09:42.014Z,2.20
2022-12-08T00:14:47.678Z,2.23
2022-12-08T00:19:50.707Z,2.27
2022-12-08T00:24:53.697Z,2.29
2022-12-08T00:29:56.682Z,2.28
2022-12-08T00:34:59.678Z,2.26
2022-12-08T00:40:03.004Z,2.32
2022-12-08T00:45:07.078Z,2.41
2022-12-08T00:50:10.829Z,2.44
2022-12-08T00:55:16.881Z,2.44
2022-12-08T01:00:20.474Z,2.42
2022-12-08T01:05:26.427Z,2.38
2022-12-08T01:10:29.492Z,2.41
2022-12-08T01:15:34.438Z,2.47
2022-12-08T01:20:37.438Z,2.53
2022-12-08T01:25:40.704Z,2.56
2022-12-08T01:30:43.774Z,2.54
2022-12-08T01:35:46.773Z,2.50
2022-12-08T01:40:49.831Z,2.44
2022-12-08T01:45:52.873Z,2.44
2022-12-08T01:50:56.193Z,2.49
2022-12-08T01:56:19.468Z,2.53
2022-12-08T02:01:22.634Z,2.54
2022-12-08T02:06:28.831Z,2.51
2022-12-08T02:11:31.845Z,2.45
2022-12-08T02:17:12.193Z,2.39
2022-12-08T02:22:25.324Z,2.35
2022-12-08T02:28:00.203Z,2.38
2022-12-08T02:33:27.816Z,2.40
2022-12-08T02:38:45.598Z,2.40
2022-12-08T02:44:01.663Z,2.37
2022-12-08T02:49:05.277Z,2.30
2022-12-08T02:54:08.578Z,2.33
2022-12-08T03:00:02.933Z,2.42
2022-12-08T03:05:43.379Z,2.47
2022-12-08T03:11:24.776Z,2.45
2022-12-08T03:16:34.280Z,2.38
2022-12-08T03:21:38.015Z,2.33
2022-12-08T03:26:51.923Z,2.30
2022-12-08T03:31:59.279Z,2.32
2022-12-08T03:37:02.661Z,2.41
2022-12-08T03:42:05.757Z,2.47
2022-12-08T03:47:08.753Z,2.44
2022-12-08T03:52:12.391Z,2.32
2022-12-08T03:57:15.378Z,2.22
2022-12-08T04:02:18.427Z,2.20
2022-12-08T04:07:25.022Z,2.18
2022-12-08T04:12:28.020Z,2.20
2022-12-08T04:17:30.996Z,2.27
2022-12-08T04:22:33.982Z,2.32
2022-12-08T04:27:37.166Z,2.30
2022-12-08T04:32:45.747Z,2.26
2022-12-08T04:37:53.414Z,2.23
2022-12-08T04:42:58.953Z,2.19
2022-12-08T04:48:02.349Z,2.22
2022-12-08T04:53:05.330Z,2.29
2022-12-08T04:58:11.396Z,2.37
2022-12-08T05:03:15.291Z,2.40
2022-12-08T05:08:18.207Z,2.37
2022-12-08T05:13:21.229Z,2.33
2022-12-08T05:18:24.248Z,2.28
2022-12-08T05:23:27.590Z,2.30
2022-12-08T05:28:46.086Z,2.38
2022-12-08T05:33:51.150Z,2.42
2022-12-08T05:38:57.826Z,2.42
2022-12-08T05:44:03.303Z,2.43
2022-12-08T05:49:06.407Z,2.42
2022-12-08T05:54:09.442Z,2.33
2022-12-08T05:59:14.628Z,2.21
2022-12-08T06:04:17.635Z,2.12
2022-12-08T06:09:22.789Z,2.12
2022-12-08T06:14:25.800Z,2.21
2022-12-08T06:19:28.863Z,2.23
2022-12-08T06:24:32.038Z,2.27
2022-12-08T06:29:35.048Z,2.26
2022-12-08T06:34:38.221Z,2.14
2022-12-08T06:39:43.637Z,2.03
2022-12-08T06:44:47.272Z,2.07
2022-12-08T06:49:53.006Z,2.17
2022-12-08T06:54:56.011Z,2.24
2022-12-08T06:59:59.018Z,2.28
2022-12-08T07:05:04.304Z,2.17
2022-12-08T07:10:08.576Z,2.11
2022-12-08T07:15:11.887Z,2.11
2022-12-08T07:20:18.636Z,2.16
2022-12-08T07:25:21.976Z,2.20
2022-12-08T07:30:25.082Z,2.24
2022-12-08T07:35:28.261Z,2.26
2022-12-08T07:40:31.224Z,2.21
2022-12-08T07:45:34.220Z,2.04
2022-12-08T07:50:37.305Z,1.93
2022-12-08T07:55:44.872Z,1.96
2022-12-08T08:00:47.966Z,2.02
2022-12-08T08:05:50.995Z,2.10
2022-12-08T08:10:56.462Z,2.23
2022-12-08T08:16:07.861Z,2.35
2022-12-08T08:21:43.637Z,2.43
2022-12-08T08:26:37.737Z,2.49
2022-12-08T08:31:42.987Z,2.56
2022-12-08T08:36:46.102Z,2.65
2022-12-08T08:41:49.145Z,2.71
2022-12-08T08:46:52.186Z,2.72
2022-12-08T08:51:58.208Z,2.65
2022-12-08T08:57:01.702Z,2.65
2022-12-08T09:02:07.736Z,2.75
2022-12-08T09:07:11.724Z,2.83
2022-12-08T09:12:14.869Z,2.87
2022-12-08T09:17:17.859Z,2.88
2022-12-08T09:22:20.871Z,2.89
2022-12-08T09:27:24.608Z,2.92
2022-12-08T09:32:30.754Z,3.08
2022-12-08T09:37:33.793Z,3.26
2022-12-08T09:43:07.431Z,3.39
2022-12-08T09:48:17.637Z,3.41
2022-12-08T09:53:36.335Z,3.39
2022-12-08T09:58:57.718Z,3.40
2022-12-08T10:04:01.914Z,3.49
2022-12-08T10:09:36.038Z,3.63
2022-12-08T10:15:12.159Z,3.76
2022-12-08T10:20:38.215Z,3.84
2022-12-08T10:26:00.537Z,3.91
2022-12-08T10:31:04.160Z,4.04
2022-12-08T10:36:07.504Z,4.11
2022-12-08T10:41:19.792Z,4.06
2022-12-08T10:46:28.545Z,4.03
2022-12-08T10:51:34.699Z,4.05
2022-12-08T10:56:37.778Z,4.16
2022-12-08T11:01:42.627Z,4.19
2022-12-08T11:06:46.971Z,4.18
2022-12-08T11:11:58.351Z,4.17
2022-12-08T11:17:27.765Z,4.13
2022-12-08T11:22:39.946Z,4.21
2022-12-08T11:27:47.362Z,4.32
2022-12-08T11:33:14.667Z,4.34
2022-12-08T11:38:22.785Z,4.31
2022-12-08T11:43:35.695Z,4.36
2022-12-08T11:48:57.360Z,4.40
2022-12-08T11:54:09.138Z,4.41
2022-12-08T11:59:34.764Z,4.37
2022-12-08T12:04:47.656Z,4.33
2022-12-08T12:10:09.523Z,4.29
2022-12-08T12:15:37.261Z,4.39
2022-12-08T12:20:53.869Z,4.45
2022-12-08T12:26:01.377Z,4.42
2022-12-08T12:31:12.744Z,4.38
2022-12-08T12:36:16.486Z,4.33
2022-12-08T12:41:31.557Z,4.31
2022-12-08T12:46:50.615Z,4.30
2022-12-08T12:51:56.720Z,4.36
2022-12-08T12:57:05.766Z,4.31
2022-12-08T13:02:48.800Z,4.16
2022-12-08T13:08:16.522Z,4.11
2022-12-08T13:13:20.127Z,4.09
2022-12-08T13:18:56.400Z,4.05
2022-12-08T13:24:14.160Z,4.01
2022-12-08T13:29:26.780Z,4.03
2022-12-08T13:34:42.131Z,4.07
2022-12-08T13:39:57.400Z,4.15
2022-12-08T13:45:33.443Z,4.13
2022-12-08T13:52:41.540Z,4.11
2022-12-08T14:01:45.961Z,4.03
2022-12-08T14:06:58.299Z,3.96
2022-12-08T14:12:26.817Z,3.88
2022-12-08T14:17:29.801Z,3.83
2022-12-08T14:22:36.064Z,3.86
2022-12-08T14:27:39.473Z,3.85
2022-12-08T14:32:51.631Z,3.87
2022-12-08T14:38:16.731Z,3.81
2022-12-08T14:43:21.000Z,3.66
2022-12-08T14:48:38.946Z,3.53
2022-12-08T14:53:47.605Z,3.43
2022-12-08T14:59:07.656Z,3.38
2022-12-08T15:04:19.221Z,3.37
2022-12-08T15:09:32.455Z,3.35
2022-12-08T15:14:38.717Z,3.24
2022-12-08T15:19:41.826Z,3.18
2022-12-08T15:24:44.852Z,3.05
2022-12-08T15:29:48.890Z,3.09
2022-12-08T15:34:51.866Z,3.16
2022-12-08T15:39:54.927Z,3.12
2022-12-08T15:44:58.018Z,3.07
2022-12-08T15:50:01.076Z,2.98
2022-12-08T15:55:04.370Z,2.96
2022-12-08T16:00:51.164Z,3.11
2022-12-08T16:06:10.261Z,3.22
2022-12-08T16:12:05.238Z,3.29
2022-12-08T16:16:54.325Z,3.31
2022-12-08T16:32:55.058Z,3.44
2022-12-08T16:37:58.289Z,3.53
2022-12-08T16:43:01.288Z,3.54
2022-12-08T16:48:07.427Z,3.49
2022-12-08T16:53:12.427Z,3.41
2022-12-08T16:58:20.745Z,3.43
2022-12-08T17:03:23.849Z,3.49
2022-12-08T17:08:27.242Z,3.50
2022-12-08T17:13:30.231Z,3.48
2022-12-08T17:18:36.235Z,3.48
2022-12-08T17:23:40.764Z,3.44
2022-12-08T17:29:00.019Z,3.47
2022-12-08T17:34:09.626Z,3.52
2022-12-08T17:39:18.443Z,3.50
2022-12-08T17:44:22.120Z,3.46
2022-12-08T17:49:29.623Z,3.44
2022-12-08T17:54:33.114Z,3.49
2022-12-08T17:59:36.089Z,3.56
2022-12-08T18:04:41.971Z,3.59
2022-12-08T18:09:44.908Z,3.53
2022-12-08T18:14:48.426Z,3.43
2022-12-08T18:19:51.665Z,3.47
2022-12-08T18:24:54.709Z,3.52
2022-12-08T18:29:57.788Z,3.52
2022-12-08T18:35:01.672Z,3.50
2022-12-08T18:40:05.928Z,3.49
2022-12-08T18:45:10.376Z,3.47
2022-12-08T18:50:16.300Z,3.45
2022-12-08T18:55:19.555Z,3.41
2022-12-08T19:00:22.869Z,3.35
2022-12-08T19:05:26.839Z,3.26
2022-12-08T19:10:32.222Z,3.20
2022-12-08T19:15:38.090Z,3.24
2022-12-08T19:20:41.136Z,3.22
2022-12-08T19:25:44.119Z,3.15
2022-12-08T19:30:47.245Z,3.17
2022-12-08T19:35:53.465Z,3.12
2022-12-08T19:41:15.181Z,3.08
2022-12-08T19:46:19.328Z,3.12
2022-12-08T19:51:22.400Z,3.16
2022-12-08T19:56:25.358Z,3.16
2022-12-08T20:01:31.038Z,3.13
2022-12-08T20:06:34.110Z,3.05
2022-12-08T20:11:38.648Z,3.04
2022-12-08T20:16:41.913Z,3.09
2022-12-08T20:21:45.012Z,2.98
2022-12-08T20:26:48.005Z,2.94
2022-12-08T20:31:51.148Z,2.83
2022-12-08T20:36:54.202Z,2.77
2022-12-08T20:41:57.339Z,2.80
2022-12-08T20:47:00.386Z,2.72
2022-12-08T20:52:03.850Z,2.73
2022-12-08T20:57:06.949Z,2.74
2022-12-08T21:02:14.184Z,2.77
2022-12-08T21:07:17.823Z,2.86
2022-12-08T21:12:20.996Z,2.91
2022-12-08T21:17:24.209Z,2.90
2022-12-08T21:22:27.472Z,2.84
2022-12-08T21:27:32.650Z,2.82
2022-12-08T21:32:38.258Z,2.74
2022-12-08T21:37:41.357Z,2.65
2022-12-08T21:42:44.447Z,2.74
2022-12-08T21:47:49.301Z,2.79
2022-12-08T21:52:52.613Z,2.75
2022-12-08T21:57:57.290Z,2.73
2022-12-08T22:03:00.499Z,2.67
2022-12-08T22:08:03.786Z,2.68
2022-12-08T22:13:06.902Z,2.74
2022-12-08T22:18:11.507Z,2.75
2022-12-08T22:23:14.957Z,2.75
2022-12-08T22:28:18.205Z,2.70
2022-12-08T22:33:24.399Z,2.68
2022-12-08T22:38:27.648Z,2.69
2022-12-08T22:43:31.496Z,2.85
2022-12-08T22:48:34.945Z,2.88
2022-12-08T22:53:38.159Z,2.86
2022-12-08T22:58:45.532Z,2.82
2022-12-08T23:03:48.738Z,2.83
2022-12-08T23:08:52.552Z,2.76
2022-12-08T23:13:58.022Z,2.68
2022-12-08T23:19:01.099Z,2.66
2022-12-08T23:24:04.713Z,2.73
2022-12-08T23:34:28.644Z,2.68
2022-12-08T23:39:32.039Z,2.68
2022-12-08T23:44:40.784Z,2.65
2022-12-08T23:49:43.814Z,2.61
2022-12-08T23:54:47.413Z,2.59
2022-12-08T23:59:50.521Z,2.58
